Terminal Aerodrome Forecast
Issued by NWS Charleston, SC

Home | Current Version | Previous Version | Text Only | Print | Product List | Glossary On
Versions: 1 2 3 4 5 6 7 8 9 10 11 12 13 14 15 16 17 18
557
FTUS42 KCHS 061123
TAFCHS
TAF
KCHS 061123Z 0612/0712 30009KT P6SM BKN050
     FM062000 31009KT P6SM VCSH BKN050
     FM070000 31005KT P6SM SCT060=

USA.gov is the U.S. government's official web portal to all federal, state and local government web resources and services.